Station: Kuitpo

  Atmospheric Gas Attenuation - ITU Rec 676-11   --------------- db/100km ---------------
Date Time Temp RH % AH g/m3 Dew Point Wind Direction Speed kph Gust kph Barometer mB Rainfall Since 9am 24GHz 47GHz 76GHz 122GHz 134GHz 241GHz
14 23:50 8.7 100 8.65 8.7 15 20 1015.1 2 19.9 27.6 42.8 112.3 106.0 364.4
14 23:40 8.7 100 8.65 8.7 19 22 1015.1 2 19.9 27.6 42.8 112.3 106.0 364.4
14 23:30 8.7 100 8.65 8.7 15 24 1015.1 2 19.9 27.6 42.8 112.3 106.0 364.4
14 23:20 8.8 100 8.71 8.8 13 20 1015.1 2 20.1 27.7 43.0 112.8 106.7 366.9
14 23:10 8.8 100 8.71 8.8 11 15 1015.1 2 20.1 27.7 43.0 112.8 106.7 366.9
14 23:00 8.8 100 8.71 8.8 20 26 1015 2 20.1 27.7 43.0 112.8 106.7 366.9
14 22:50 8.9 100 8.76 8.9 13 19 1015 2 20.2 27.7 43.1 113.3 107.3 368.9
14 22:40 9 100 8.82 9 17 24 1014.9 2 20.3 27.8 43.3 113.8 108.0 371.4
14 22:30 9.1 100 8.88 9.1 15 19 1014.8 2 20.4 27.9 43.5 114.3 108.7 373.9
14 22:20 9.1 100 8.88 9.1 17 20 1014.8 2 20.4 27.9 43.5 114.3 108.7 373.9
14 22:10 9.2 100 8.93 9.2 15 17 1014.8 2 20.5 27.9 43.7 114.8 109.3 375.9
14 22:00 9.2 100 8.93 9.2 15 20 1014.8 2 20.5 27.9 43.7 114.8 109.3 375.9
14 21:50 9.1 100 8.88 9.1 13 20 1014.7 2 20.4 27.9 43.5 114.3 108.7 373.9
14 21:40 9.1 100 8.88 9.1 13 20 1014.8 2 20.4 27.9 43.5 114.3 108.7 373.9
14 21:30 9 100 8.82 9 17 22 1014.7 2 20.3 27.8 43.3 113.8 108.0 371.3
14 21:20 9 100 8.82 9 19 24 1014.7 2 20.3 27.8 43.3 113.8 108.0 371.3
14 21:10 9.2 100 8.93 9.2 15 20 1014.7 2 20.5 27.9 43.7 114.7 109.3 375.9
14 21:00 9.3 100 8.99 9.3 17 19 1014.7 2 20.7 28.0 43.9 115.3 110.0 378.4
14 20:50 9.5 100 9.1 9.5 17 20 1014.7 2 20.9 28.1 44.3 116.3 111.3 382.9
14 20:40 9.6 100 9.16 9.6 17 19 1014.7 2 21.0 28.2 44.5 116.8 112.0 385.4
14 20:30 9.7 100 9.22 9.7 17 20 1014.6 2 21.1 28.2 44.7 117.3 112.7 387.8
14 20:20 9.8 100 9.28 9.8 13 17 1014.6 2 21.3 28.3 44.9 117.9 113.4 390.3
14 20:10 9.9 100 9.34 9.9 17 20 1014.5 2 21.4 28.4 45.1 118.4 114.1 392.8
14 20:00 10.2 100 9.52 10.2 9 13 1014.5 2 21.8 28.6 45.7 120.1 116.2 400.3
14 19:50 10.4 100 9.64 10.4 9 11 1014.3 2 22.0 28.7 46.1 121.1 117.6 405.2
14 19:40 10.6 100 9.76 10.6 15 20 1014.3 2 22.2 28.9 46.5 122.2 119.0 410.2
14 19:30 10.9 100 9.95 10.9 13 19 1014 2 22.6 29.1 47.1 123.9 121.3 418.1
14 19:20 11.3 100 10.2 11.3 7 9 1014.1 2 23.2 29.4 48.0 126.2 124.3 428.5
14 19:10 11.3 100 10.2 11.3 11 13 1014 1.8 23.2 29.4 48.0 126.2 124.2 428.5
14 19:00 11.5 100 10.33 11.5 7 11 1013.9 1.8 23.4 29.6 48.4 127.4 125.8 433.9
14 18:50 11.5 100 10.33 11.5 7 9 1013.7 1.2 23.4 29.6 48.4 127.4 125.8 433.9
14 18:40 11.8 100 10.53 11.8 11 13 1013.6 0.8 23.8 29.8 49.1 129.2 128.2 442.3
14 18:30 12.5 100 11 12.5 4 9 1013.5 0.8 24.8 30.4 50.7 133.6 133.8 462.1
14 18:20 12.5 100 11 12.5 7 9 1013.5 0.8 24.8 30.4 50.7 133.6 133.8 462.1
14 18:10 12.5 100 11 12.5 9 11 1013.4 0.8 24.8 30.4 50.7 133.6 133.8 462.0
14 18:00 12.6 100 11.06 12.6 7 9 1013.2 0.8 24.9 30.5 50.9 134.1 134.5 464.4
14 17:50 12.7 100 11.13 12.7 6 6 1013 0.8 25.1 30.6 51.2 134.7 135.3 467.3
14 17:40 12.6 100 11.06 12.6 0 0 1012.8 0.8 24.9 30.5 50.9 134.0 134.4 464.3
14 17:30 12.6 100 11.06 12.6 6 7 1012.7 0.8 24.9 30.5 50.9 134.0 134.4 464.2
14 17:20 12.7 100 11.13 12.7 9 11 1012.7 0.8 25.1 30.5 51.1 134.7 135.3 467.2
14 17:10 12.7 100 11.13 12.7 9 13 1012.6 0.8 25.1 30.5 51.1 134.7 135.3 467.2
14 17:00 12.8 100 11.2 12.8 9 13 1012.5 0.8 25.2 30.6 51.4 135.3 136.1 470.1
14 16:50 12.8 100 11.2 12.8 9 11 1012.4 0.8 25.2 30.6 51.4 135.3 136.1 470.1
14 16:40 12.7 100 11.13 12.7 7 9 1012.2 0.8 25.1 30.5 51.1 134.6 135.2 467.0
14 16:30 12.9 100 11.27 12.9 11 11 1012.2 0.8 25.4 30.7 51.6 135.9 136.9 473.0
14 16:20 12.8 100 11.2 12.8 7 9 1012.1 0.8 25.2 30.6 51.4 135.3 136.1 470.0
14 16:10 12.8 100 11.2 12.8 9 11 1011.9 0.8 25.2 30.6 51.3 135.3 136.0 469.9
14 16:00 12.8 98 10.98 12.5 7 7 1011.9 0.8 24.8 30.2 50.4 132.6 132.8 458.7
14 15:50 12.9 97 10.93 12.4 7 9 1011.8 0.8 24.6 30.1 50.1 131.9 131.9 455.5
14 15:40 13.1 96 10.96 12.5 7 9 1011.8 0.8 24.7 30.1 50.1 131.9 132.0 455.8
14 15:30 13.2 95 10.91 12.4 7 9 1011.7 0.8 24.6 29.9 49.8 131.1 131.1 452.7
14 15:20 13.5 95 11.11 12.7 9 9 1011.6 0.8 25.0 30.2 50.5 132.9 133.4 461.0
14 15:10 13.5 95 11.11 12.7 7 11 1011.5 0.8 25.0 30.2 50.5 132.9 133.4 460.9
14 15:00 13.4 96 11.16 12.8 9 11 1011.6 0.8 25.1 30.3 50.8 133.7 134.3 464.1
14 14:50 13.6 100 11.77 13.6 9 15 1011.6 0.8 26.4 31.3 53.3 140.6 142.9 494.0
14 14:40 13.6 100 11.77 13.6 9 13 1011.5 0.8 26.4 31.3 53.3 140.6 142.9 494.0
14 14:30 13.4 100 11.63 13.4 9 15 1011.4 0.8 26.1 31.1 52.8 139.3 141.2 488.0
14 14:20 13.3 100 11.55 13.3 7 9 1011.3 0.8 26.0 31.0 52.5 138.5 140.2 484.5
14 14:10 13 100 11.34 13 9 11 1011.4 0.8 25.5 30.8 51.8 136.5 137.7 475.6
14 14:00 12.8 100 11.2 12.8 13 17 1011.4 0.8 25.2 30.6 51.3 135.2 136.0 469.7
14 13:50 12.5 100 11 12.5 11 13 1011.3 0.8 24.8 30.3 50.6 133.3 133.6 461.3
14 13:40 12.6 100 11.06 12.6 9 11 1011.4 0.8 24.9 30.4 50.8 133.9 134.3 463.8
14 13:30 12.3 100 10.86 12.3 9 11 1011.4 0.8 24.5 30.1 50.1 132.0 131.9 455.4
14 13:20 12.3 100 10.86 12.3 7 9 1011.6 0.8 24.5 30.2 50.1 132.0 131.9 455.4
14 13:10 12.2 100 10.79 12.2 15 17 1011.6 0.8 24.4 30.1 49.9 131.4 131.1 452.5
14 13:00 12.1 100 10.73 12.1 7 15 1011.3 0.8 24.3 30.0 49.7 130.8 130.3 449.9
14 12:50 11.8 100 10.53 11.8 9 15 1011.4 0.8 23.9 29.7 49.0 129.0 127.9 441.5
14 12:40 11.9 100 10.59 11.9 11 17 1011.7 0.8 24.0 29.8 49.2 129.5 128.7 444.1
14 12:30 12 100 10.66 12 17 22 1012 0.8 24.1 29.9 49.5 130.2 129.6 447.2
14 12:20 12 100 10.66 12 17 22 1012.1 0.6 24.1 29.9 49.5 130.2 129.6 447.2
14 12:10 12.1 100 10.73 12.1 9 11 1012.1 0.6 24.3 30.0 49.7 130.9 130.4 450.2
14 12:00 12 100 10.66 12 15 17 1012.1 0.6 24.1 29.9 49.5 130.2 129.6 447.2
14 11:50 11.9 100 10.59 11.9 15 17 1012.2 0.6 24.0 29.8 49.2 129.6 128.7 444.3
14 11:40 11.9 100 10.59 11.9 11 15 1012.2 0.6 24.0 29.8 49.2 129.6 128.7 444.3
14 11:30 11.9 100 10.59 11.9 15 19 1012.3 0.4 24.0 29.8 49.2 129.6 128.7 444.3
14 11:20 11.8 100 10.53 11.8 15 24 1012.4 0.4 23.8 29.8 49.0 129.1 128.0 441.9
14 11:10 11.9 100 10.59 11.9 11 15 1012.5 0 24.0 29.8 49.2 129.6 128.8 444.4
14 11:00 12 100 10.66 12 15 20 1012.5 0 24.1 29.9 49.5 130.3 129.6 447.3
14 10:50 12 100 10.66 12 13 15 1012.6 0 24.1 29.9 49.5 130.3 129.6 447.4
14 10:40 11.9 100 10.59 11.9 15 19 1012.7 0 24.0 29.9 49.3 129.7 128.8 444.4
14 10:30 12 100 10.66 12 13 17 1012.8 0 24.1 30.0 49.5 130.3 129.6 447.4
14 10:20 12 100 10.66 12 13 17 1012.8 0 24.1 30.0 49.5 130.3 129.6 447.4
14 10:10 12 99 10.55 11.8 15 20 1012.9 0 23.9 29.8 49.0 129.0 128.0 441.9
14 10:00 11.9 99 10.49 11.7 13 15 1012.9 0 23.8 29.7 48.8 128.5 127.3 439.4
14 09:50 11.8 98 10.32 11.5 15 20 1012.9 0 23.4 29.4 48.1 126.7 125.0 431.4
14 09:40 11.8 98 10.32 11.5 13 15 1012.8 0 23.4 29.4 48.1 126.7 125.0 431.4
14 09:30 11.7 97 10.15 11.2 13 19 1012.8 0 23.0 29.1 47.4 124.8 122.8 423.4
14 09:20 11.8 96 10.11 11.2 13 17 1012.7 0 22.9 29.0 47.2 124.2 122.0 420.8
14 09:10 11.9 95 10.06 11.1 11 15 1012.7 0 22.8 28.9 46.9 123.5 121.1 417.7
14 09:00 11.9 95 10.06 11.1 13 17 1012.7 0 22.8 28.9 46.9 123.5 121.1 417.7
14 08:50 11.8 95 10 11 13 17 1012.7 17 22.7 28.8 46.7 122.9 120.4 415.3
14 08:40 11.8 94 9.89 10.9 15 24 1012.6 17 22.5 28.7 46.2 121.6 118.9 409.8
14 08:30 11.8 94 9.89 10.9 20 32 1012.7 17 22.5 28.7 46.2 121.6 118.9 409.8
14 08:20 11.7 95 9.94 10.9 13 17 1012.7 17 22.6 28.8 46.5 122.4 119.7 412.8
14 08:10 11.6 96 9.98 11 17 22 1012.7 17 22.7 28.9 46.8 123.0 120.5 415.4
14 08:00 11.6 98 10.19 11.3 17 24 1012.7 17 23.1 29.2 47.7 125.5 123.5 425.9
14 07:50 11.5 100 10.33 11.5 15 19 1012.8 17 23.4 29.5 48.4 127.3 125.7 433.6
14 07:40 11.4 100 10.27 11.4 11 13 1012.9 17 23.3 29.5 48.2 126.7 125.0 431.1
14 07:30 11.4 100 10.27 11.4 15 17 1013 17 23.3 29.5 48.2 126.8 125.0 431.2
14 07:20 11.4 100 10.27 11.4 13 19 1012.9 17 23.3 29.5 48.2 126.7 125.0 431.1

Last Refresh: 14-Jun-2024 23:58:03

Bureau of Meteorology